createdAt,value
2023-02-25T00:00:25.156Z,82.68
2023-02-25T00:03:12.622Z,82.74
2023-02-25T00:06:05.168Z,83.11
2023-02-25T00:08:52.937Z,83.19
2023-02-25T00:11:39.904Z,83.41
2023-02-25T00:14:28.015Z,83.05
2023-02-25T00:17:15.070Z,83.20
2023-02-25T00:20:02.352Z,83.34
2023-02-25T00:22:49.637Z,83.32
2023-02-25T00:25:36.732Z,83.54
2023-02-25T00:28:23.617Z,83.54
2023-02-25T00:31:13.494Z,83.68
2023-02-25T00:34:00.504Z,83.66
2023-02-25T00:36:48.312Z,83.74
2023-02-25T00:39:44.659Z,83.64
2023-02-25T00:42:31.618Z,83.75
2023-02-25T00:45:18.599Z,83.91
2023-02-25T00:48:05.681Z,83.75
2023-02-25T00:50:52.589Z,84.04
2023-02-25T00:53:40.941Z,84.36
2023-02-25T00:56:27.937Z,84.21
2023-02-25T00:59:14.928Z,84.24
2023-02-25T01:02:02.130Z,84.10
2023-02-25T01:04:49.226Z,84.08
2023-02-25T01:07:38.126Z,84.29
2023-02-25T01:10:25.051Z,84.51
2023-02-25T01:13:12.047Z,84.57
2023-02-25T01:15:58.972Z,84.66
2023-02-25T01:18:46.665Z,84.78
2023-02-25T01:21:36.896Z,84.52
2023-02-25T01:24:30.074Z,84.42
2023-02-25T01:27:17.094Z,84.39
2023-02-25T01:30:05.468Z,84.67
2023-02-25T01:32:52.585Z,84.72
2023-02-25T01:35:39.583Z,84.87
2023-02-25T01:38:27.434Z,85.17
2023-02-25T01:41:14.404Z,85.14
2023-02-25T01:44:29.160Z,85.01
2023-02-25T01:47:22.459Z,84.98
2023-02-25T01:50:10.296Z,85.00
2023-02-25T01:53:02.104Z,84.96
2023-02-25T01:55:49.586Z,85.14
2023-02-25T01:58:36.954Z,85.08
2023-02-25T02:01:27.646Z,85.36
2023-02-25T02:04:16.730Z,85.28
2023-02-25T02:07:04.400Z,85.46
2023-02-25T02:09:57.277Z,85.93
2023-02-25T02:12:47.406Z,85.88
2023-02-25T02:15:40.178Z,85.41
2023-02-25T02:18:30.318Z,85.75
2023-02-25T02:21:41.288Z,85.39
2023-02-25T02:24:40.278Z,85.57
2023-02-25T02:27:58.521Z,85.87
2023-02-25T02:31:16.333Z,85.73
2023-02-25T02:34:41.972Z,85.93
2023-02-25T02:37:46.154Z,85.64
2023-02-25T02:40:43.240Z,85.76
2023-02-25T02:43:41.146Z,85.82
2023-02-25T02:46:35.806Z,85.82
2023-02-25T02:49:57.803Z,86.45
2023-02-25T02:52:51.394Z,86.49
2023-02-25T02:55:48.227Z,86.58
2023-02-25T02:58:43.265Z,86.15
2023-02-25T03:01:35.012Z,86.47
2023-02-25T03:04:28.041Z,86.34
2023-02-25T03:07:18.004Z,86.27
2023-02-25T03:10:08.670Z,86.47
2023-02-25T03:12:55.805Z,86.37
2023-02-25T03:15:44.152Z,86.63
2023-02-25T03:18:53.245Z,86.86
2023-02-25T03:21:49.693Z,86.66
2023-02-25T03:24:46.120Z,86.70
2023-02-25T03:27:43.559Z,86.64
2023-02-25T03:30:47.022Z,86.97
2023-02-25T03:33:48.606Z,86.98
2023-02-25T03:36:46.082Z,87.15
2023-02-25T03:39:38.619Z,87.51
2023-02-25T03:42:32.381Z,87.43
2023-02-25T03:45:21.372Z,87.36
2023-02-25T03:48:10.950Z,87.32
2023-02-25T03:51:02.873Z,87.58
2023-02-25T03:53:50.362Z,87.45
2023-02-25T03:56:46.261Z,87.69
2023-02-25T03:59:33.178Z,87.47
2023-02-25T04:02:21.326Z,87.57
2023-02-25T04:05:10.206Z,87.57
2023-02-25T04:07:59.262Z,87.56
2023-02-25T04:10:47.165Z,87.88
2023-02-25T04:13:34.135Z,87.70
2023-02-25T04:16:21.326Z,88.04
2023-02-25T04:19:08.435Z,88.03
2023-02-25T04:21:55.360Z,88.08
2023-02-25T04:24:42.286Z,87.92
2023-02-25T04:27:29.364Z,88.05
2023-02-25T04:30:16.342Z,88.02
2023-02-25T04:33:03.351Z,88.26
2023-02-25T04:35:51.032Z,87.98
2023-02-25T04:38:38.037Z,88.16
2023-02-25T04:41:29.623Z,88.04
2023-02-25T04:44:16.565Z,88.17
2023-02-25T04:47:03.611Z,88.22
2023-02-25T04:49:50.558Z,87.95
2023-02-25T04:52:37.645Z,87.95
2023-02-25T04:55:24.545Z,88.06
2023-02-25T04:58:11.469Z,88.10
2023-02-25T05:01:03.148Z,87.98
2023-02-25T05:03:50.271Z,88.09
2023-02-25T05:06:37.296Z,87.75
2023-02-25T05:09:24.261Z,87.88
2023-02-25T05:12:11.211Z,87.80
2023-02-25T05:14:58.196Z,87.62
2023-02-25T05:17:45.158Z,87.06
2023-02-25T05:20:32.098Z,87.21
2023-02-25T05:23:19.029Z,87.12
2023-02-25T05:26:06.578Z,86.99
2023-02-25T05:28:56.071Z,86.92
2023-02-25T05:31:43.086Z,86.87
2023-02-25T05:34:30.152Z,86.54
2023-02-25T05:37:17.208Z,86.43
2023-02-25T05:40:04.546Z,86.63
2023-02-25T05:42:51.508Z,86.24
2023-02-25T05:45:38.469Z,86.36
2023-02-25T05:48:25.757Z,86.28
2023-02-25T05:51:18.688Z,85.88
2023-02-25T05:54:05.813Z,85.81
2023-02-25T05:56:53.076Z,85.74
2023-02-25T05:59:39.972Z,85.58
2023-02-25T06:02:27.348Z,85.72
2023-02-25T06:05:14.317Z,85.63
2023-02-25T06:08:01.381Z,85.48
2023-02-25T06:10:48.589Z,85.22
2023-02-25T06:13:35.582Z,85.45
2023-02-25T06:16:25.992Z,85.32
2023-02-25T06:19:13.286Z,85.22
2023-02-25T06:22:00.324Z,84.98
2023-02-25T06:24:47.242Z,84.83
2023-02-25T06:27:34.171Z,84.50
2023-02-25T06:30:21.120Z,84.61
2023-02-25T06:33:08.087Z,84.62
2023-02-25T06:35:55.691Z,84.43
2023-02-25T06:38:44.173Z,84.44
2023-02-25T06:41:31.143Z,84.22
2023-02-25T06:44:18.066Z,84.03
2023-02-25T06:47:05.062Z,84.08
2023-02-25T06:49:51.980Z,84.19
2023-02-25T06:52:38.947Z,83.89
2023-02-25T06:55:26.715Z,83.99
2023-02-25T06:58:15.596Z,83.56
2023-02-25T07:01:06.981Z,83.39
2023-02-25T07:03:54.054Z,83.45
2023-02-25T07:06:41.037Z,83.27
2023-02-25T07:09:28.059Z,82.85
2023-02-25T07:12:15.094Z,83.16
2023-02-25T07:15:02.163Z,83.16
2023-02-25T07:17:49.490Z,82.88
2023-02-25T07:20:39.187Z,82.73
2023-02-25T07:23:26.304Z,82.28
2023-02-25T07:26:14.273Z,82.69
2023-02-25T07:29:01.379Z,82.35
2023-02-25T07:31:48.486Z,82.28
2023-02-25T07:34:36.981Z,82.09
2023-02-25T07:37:23.908Z,81.99
2023-02-25T07:40:13.047Z,81.53
2023-02-25T07:43:00.045Z,81.69
2023-02-25T07:45:49.539Z,81.64
2023-02-25T07:48:36.707Z,81.51
2023-02-25T07:51:25.466Z,81.14
2023-02-25T07:54:12.596Z,81.08
2023-02-25T07:56:59.571Z,81.15
2023-02-25T07:59:46.553Z,80.97
2023-02-25T08:02:33.558Z,81.00
2023-02-25T08:05:22.723Z,80.95
2023-02-25T08:08:09.804Z,80.85
2023-02-25T08:10:56.742Z,80.67
2023-02-25T08:13:43.739Z,80.70
2023-02-25T08:16:30.705Z,80.51
2023-02-25T08:19:17.586Z,80.43
2023-02-25T08:22:04.831Z,80.21
2023-02-25T08:24:51.810Z,80.37
2023-02-25T08:27:38.895Z,80.22
2023-02-25T08:30:25.849Z,79.99
2023-02-25T08:33:12.786Z,79.43
2023-02-25T08:36:12.320Z,79.40
2023-02-25T08:39:00.303Z,78.67
2023-02-25T08:41:47.235Z,78.86
2023-02-25T08:44:34.158Z,78.67
2023-02-25T08:47:21.082Z,78.19
2023-02-25T08:50:09.921Z,78.09
2023-02-25T08:52:57.888Z,77.70
2023-02-25T08:55:44.807Z,77.68
2023-02-25T08:58:32.735Z,77.64
2023-02-25T09:01:20.427Z,77.23
2023-02-25T09:04:07.498Z,77.13
2023-02-25T09:06:54.722Z,76.75
2023-02-25T09:09:41.783Z,77.06
2023-02-25T09:12:30.728Z,76.73
2023-02-25T09:15:17.696Z,76.23
2023-02-25T09:18:04.859Z,76.32
2023-02-25T09:20:51.956Z,76.05
2023-02-25T09:23:38.933Z,75.56
2023-02-25T09:26:26.024Z,75.14
2023-02-25T09:29:13.054Z,75.19
2023-02-25T09:32:00.140Z,75.20
2023-02-25T09:34:49.280Z,75.38
2023-02-25T09:37:36.306Z,75.09
2023-02-25T09:40:23.375Z,75.42
2023-02-25T09:43:28.352Z,74.76
2023-02-25T09:46:19.256Z,74.09
2023-02-25T09:49:21.867Z,74.30
2023-02-25T09:52:12.262Z,74.23
2023-02-25T09:55:06.623Z,74.47
2023-02-25T09:58:03.068Z,74.42
2023-02-25T10:01:15.605Z,74.22
2023-02-25T10:04:14.701Z,73.96
2023-02-25T10:07:12.969Z,73.73
2023-02-25T10:10:15.328Z,73.52
2023-02-25T10:13:16.634Z,72.41
2023-02-25T10:16:54.484Z,71.91
2023-02-25T10:20:02.663Z,71.30
2023-02-25T10:23:08.077Z,70.67
2023-02-25T10:26:03.525Z,70.65
2023-02-25T10:29:00.615Z,70.19
2023-02-25T10:31:47.920Z,70.36
2023-02-25T10:34:38.956Z,70.69
2023-02-25T10:37:38.168Z,69.52
2023-02-25T10:40:29.270Z,69.14
2023-02-25T10:43:22.608Z,69.33
2023-02-25T10:46:37.508Z,69.20
2023-02-25T10:49:27.293Z,69.25
2023-02-25T10:52:17.635Z,69.03
2023-02-25T10:55:04.956Z,69.03
2023-02-25T10:57:52.103Z,68.84
2023-02-25T11:00:41.068Z,69.00
2023-02-25T11:03:31.634Z,68.71
2023-02-25T11:06:24.864Z,68.58
2023-02-25T11:09:21.212Z,68.44
2023-02-25T11:12:08.094Z,68.80
2023-02-25T11:14:55.053Z,68.77
2023-02-25T11:17:44.746Z,68.53
2023-02-25T11:20:32.579Z,68.52
2023-02-25T11:23:31.299Z,68.19
2023-02-25T11:26:30.334Z,68.23
2023-02-25T11:29:23.021Z,68.32
2023-02-25T11:32:15.585Z,68.11
2023-02-25T11:35:09.204Z,67.90
2023-02-25T11:37:58.455Z,67.71
2023-02-25T11:40:45.689Z,67.81
2023-02-25T11:43:40.723Z,67.66
2023-02-25T11:46:32.763Z,67.87
2023-02-25T11:49:43.790Z,67.48
2023-02-25T11:52:39.650Z,67.33
2023-02-25T11:55:52.455Z,67.12
2023-02-25T11:59:13.568Z,67.76
2023-02-25T12:02:19.288Z,67.79
2023-02-25T12:05:09.162Z,67.64
2023-02-25T12:08:19.331Z,67.52
2023-02-25T12:11:24.834Z,67.50
2023-02-25T12:14:50.926Z,67.44
2023-02-25T12:21:19.874Z,67.34
2023-02-25T12:24:12.480Z,67.33
2023-02-25T12:27:13.143Z,67.00
2023-02-25T12:30:16.190Z,67.26
2023-02-25T12:33:10.279Z,66.88
2023-02-25T12:36:20.266Z,66.97
2023-02-25T12:39:19.224Z,66.73
2023-02-25T12:42:34.301Z,66.61
2023-02-25T12:45:59.523Z,66.70
2023-02-25T12:49:11.229Z,66.64
2023-02-25T12:52:17.510Z,66.28
2023-02-25T12:55:41.790Z,66.12
2023-02-25T12:59:04.688Z,66.40
2023-02-25T13:02:02.997Z,66.75
2023-02-25T13:04:58.866Z,66.54
2023-02-25T13:07:56.222Z,66.02
2023-02-25T13:11:16.366Z,66.08
2023-02-25T13:14:03.280Z,66.21
2023-02-25T13:16:58.425Z,65.98
2023-02-25T13:20:06.920Z,65.73
2023-02-25T13:22:57.146Z,65.91
2023-02-25T13:26:11.749Z,65.11
2023-02-25T13:29:34.135Z,64.87
2023-02-25T13:32:49.779Z,65.17
2023-02-25T13:36:02.804Z,64.61
2023-02-25T13:39:01.907Z,63.82
2023-02-25T13:41:48.796Z,64.66
2023-02-25T13:44:47.929Z,64.40
2023-02-25T13:47:38.171Z,64.31
2023-02-25T13:50:43.805Z,64.20
2023-02-25T13:53:49.066Z,64.13
2023-02-25T13:56:46.369Z,63.89
2023-02-25T14:00:01.847Z,63.79
2023-02-25T14:03:36.432Z,63.88
2023-02-25T14:06:23.336Z,64.50
2023-02-25T14:09:44.329Z,64.02
2023-02-25T14:13:01.881Z,64.05
2023-02-25T14:16:07.739Z,64.03
2023-02-25T14:19:20.046Z,63.82
2023-02-25T14:22:43.793Z,62.92
2023-02-25T14:26:01.739Z,62.72
2023-02-25T14:29:14.905Z,63.42
2023-02-25T14:32:21.281Z,63.69
2023-02-25T14:35:20.862Z,63.41
2023-02-25T14:38:15.047Z,63.63
2023-02-25T14:41:20.331Z,62.90
2023-02-25T14:44:14.542Z,63.06
2023-02-25T14:47:11.211Z,63.06
2023-02-25T14:50:00.597Z,63.03
2023-02-25T14:52:53.186Z,62.82
2023-02-25T14:56:01.250Z,62.48
2023-02-25T14:59:00.319Z,62.49
2023-02-25T15:02:21.074Z,62.45
2023-02-25T15:05:34.083Z,62.12
2023-02-25T15:08:26.695Z,62.30
2023-02-25T15:11:37.930Z,62.59
2023-02-25T15:15:03.443Z,62.05
2023-02-25T15:18:13.853Z,62.11
2023-02-25T15:21:29.537Z,62.38
2023-02-25T15:24:36.892Z,62.15
2023-02-25T15:27:45.041Z,61.92
2023-02-25T15:31:03.366Z,61.83
2023-02-25T15:33:50.618Z,61.88
2023-02-25T15:36:44.958Z,61.91
2023-02-25T15:39:41.279Z,61.76
2023-02-25T15:42:51.698Z,61.53
2023-02-25T15:45:40.836Z,61.69
2023-02-25T15:48:32.489Z,61.85
2023-02-25T15:51:38.963Z,61.67
2023-02-25T15:54:28.803Z,61.88
2023-02-25T15:57:21.521Z,61.20
2023-02-25T16:00:28.379Z,60.72
2023-02-25T16:03:36.420Z,61.45
2023-02-25T16:06:39.490Z,61.29
2023-02-25T16:09:27.707Z,61.15
2023-02-25T16:12:15.840Z,60.66
2023-02-25T16:15:04.089Z,60.41
2023-02-25T16:17:52.544Z,60.82
2023-02-25T16:20:46.773Z,60.60
2023-02-25T16:23:39.065Z,60.86
2023-02-25T16:26:55.450Z,60.89
2023-02-25T16:30:16.819Z,60.62
2023-02-25T16:33:12.113Z,60.88
2023-02-25T16:36:24.891Z,61.10
2023-02-25T16:39:18.920Z,60.92
2023-02-25T16:42:11.762Z,60.95
2023-02-25T16:45:05.028Z,60.82
2023-02-25T16:47:58.127Z,61.07
2023-02-25T16:50:47.960Z,60.77
2023-02-25T16:53:35.027Z,60.72
2023-02-25T16:56:25.896Z,60.73
2023-02-25T16:59:13.000Z,60.97
2023-02-25T17:02:21.819Z,61.19
2023-02-25T17:05:23.792Z,60.89
2023-02-25T17:08:16.535Z,61.04
2023-02-25T17:11:05.351Z,60.34
2023-02-25T17:13:56.117Z,60.93
2023-02-25T17:16:47.910Z,61.11
2023-02-25T17:19:34.940Z,61.03
2023-02-25T17:22:23.628Z,61.09
2023-02-25T17:25:16.179Z,61.29
2023-02-25T17:28:04.287Z,61.32
2023-02-25T17:30:52.201Z,61.30
2023-02-25T17:33:54.300Z,61.03
2023-02-25T17:36:41.592Z,60.94
2023-02-25T17:39:29.757Z,61.11
2023-02-25T17:42:31.592Z,61.14
2023-02-25T17:45:47.205Z,61.25
2023-02-25T17:48:43.275Z,61.50
2023-02-25T17:51:33.901Z,61.66
2023-02-25T17:54:24.389Z,61.69
2023-02-25T17:57:23.518Z,61.53
2023-02-25T18:00:26.177Z,61.66
2023-02-25T18:03:21.244Z,61.09
2023-02-25T18:06:43.819Z,60.71
2023-02-25T18:09:38.132Z,61.02
2023-02-25T18:12:28.650Z,60.50
2023-02-25T18:15:19.207Z,60.56
2023-02-25T18:18:07.652Z,60.74
2023-02-25T18:20:58.094Z,60.63
2023-02-25T18:23:46.149Z,60.65
2023-02-25T18:26:33.794Z,60.39
2023-02-25T18:29:20.750Z,60.41
2023-02-25T18:32:07.868Z,60.65
2023-02-25T18:34:54.982Z,60.76
2023-02-25T18:37:43.454Z,60.77
2023-02-25T18:40:38.935Z,60.96
2023-02-25T18:43:30.648Z,61.01
2023-02-25T18:46:17.603Z,61.52
2023-02-25T18:49:04.512Z,61.29
2023-02-25T18:51:52.144Z,61.27
2023-02-25T18:54:40.741Z,61.33
2023-02-25T18:57:29.194Z,60.92
2023-02-25T19:00:19.359Z,61.17
2023-02-25T19:03:07.369Z,60.93
2023-02-25T19:05:54.650Z,61.09
2023-02-25T19:08:41.593Z,60.80
2023-02-25T19:11:33.343Z,61.09
2023-02-25T19:14:21.102Z,61.06
2023-02-25T19:17:14.865Z,61.43
2023-02-25T19:20:02.248Z,61.95
2023-02-25T19:22:52.048Z,62.28
2023-02-25T19:25:39.148Z,62.36
2023-02-25T19:28:27.045Z,62.42
2023-02-25T19:31:14.129Z,62.13
2023-02-25T19:34:01.117Z,62.20
2023-02-25T19:36:48.188Z,62.47
2023-02-25T19:39:35.148Z,62.47
2023-02-25T19:42:22.117Z,62.29
2023-02-25T19:45:11.986Z,62.29
2023-02-25T19:47:59.869Z,62.37
2023-02-25T19:50:48.111Z,61.97
2023-02-25T19:53:35.679Z,62.13
2023-02-25T19:56:23.222Z,61.89
2023-02-25T19:59:12.026Z,62.15
2023-02-25T20:01:59.109Z,61.86
2023-02-25T20:04:46.028Z,61.45
2023-02-25T20:07:33.235Z,61.53
2023-02-25T20:10:21.837Z,61.56
2023-02-25T20:13:08.800Z,62.02
2023-02-25T20:16:01.289Z,61.79
2023-02-25T20:18:52.199Z,62.38
2023-02-25T20:21:39.126Z,62.37
2023-02-25T20:24:26.231Z,62.47
2023-02-25T20:27:13.179Z,62.09
2023-02-25T20:30:00.256Z,62.05
2023-02-25T20:32:47.289Z,61.83
2023-02-25T20:35:34.512Z,61.70
2023-02-25T20:38:33.903Z,61.16
2023-02-25T20:41:20.964Z,61.72
2023-02-25T20:44:08.560Z,61.41
2023-02-25T20:46:55.870Z,61.33
2023-02-25T20:49:42.986Z,61.33
2023-02-25T20:52:30.180Z,61.29
2023-02-25T20:55:17.160Z,61.38
2023-02-25T20:58:04.114Z,61.11
2023-02-25T21:00:51.096Z,61.58
2023-02-25T21:03:38.107Z,61.45
2023-02-25T21:06:26.587Z,61.47
2023-02-25T21:09:13.714Z,61.78
2023-02-25T21:12:00.684Z,61.61
2023-02-25T21:14:47.646Z,61.80
2023-02-25T21:17:34.622Z,61.90
2023-02-25T21:20:21.562Z,62.12
2023-02-25T21:23:11.324Z,62.15
2023-02-25T21:25:58.551Z,61.98
2023-02-25T21:28:46.764Z,62.02
2023-02-25T21:31:34.188Z,62.32
2023-02-25T21:34:21.340Z,62.26
2023-02-25T21:37:08.301Z,62.23
2023-02-25T21:39:56.873Z,62.37
2023-02-25T21:42:43.788Z,62.42
2023-02-25T21:45:30.723Z,62.56
2023-02-25T21:48:17.654Z,62.56
2023-02-25T21:51:04.966Z,62.59
2023-02-25T21:53:57.092Z,62.58
2023-02-25T21:56:44.094Z,62.52
2023-02-25T21:59:31.012Z,62.67
2023-02-25T22:02:17.966Z,62.34
2023-02-25T22:05:05.247Z,62.43
2023-02-25T22:07:52.188Z,62.62
2023-02-25T22:10:40.075Z,62.62
2023-02-25T22:13:32.659Z,62.80
2023-02-25T22:16:21.284Z,62.73
2023-02-25T22:19:08.341Z,62.85
2023-02-25T22:21:55.323Z,62.70
2023-02-25T22:24:42.276Z,62.84
2023-02-25T22:27:29.671Z,63.02
2023-02-25T22:30:16.882Z,63.18
2023-02-25T22:33:03.822Z,63.19
2023-02-25T22:35:59.124Z,63.53
2023-02-25T22:38:47.405Z,63.88
2023-02-25T22:41:35.619Z,64.02
2023-02-25T22:44:22.878Z,64.21
2023-02-25T22:47:09.800Z,64.17
2023-02-25T22:49:56.818Z,64.48
2023-02-25T22:52:44.893Z,64.72
2023-02-25T22:55:33.851Z,64.87
2023-02-25T22:58:20.817Z,64.76
2023-02-25T23:01:08.881Z,64.96
2023-02-25T23:03:56.639Z,64.88
2023-02-25T23:06:45.128Z,64.97
2023-02-25T23:09:32.400Z,64.86
2023-02-25T23:12:21.175Z,64.84
2023-02-25T23:15:09.480Z,64.72
2023-02-25T23:17:56.468Z,65.00
2023-02-25T23:20:43.873Z,64.75
2023-02-25T23:23:38.392Z,64.59
2023-02-25T23:26:29.525Z,64.94
2023-02-25T23:29:16.422Z,65.01
2023-02-25T23:32:03.561Z,65.50
2023-02-25T23:34:51.489Z,65.96
2023-02-25T23:37:38.651Z,66.33
2023-02-25T23:40:25.735Z,66.39
2023-02-25T23:43:12.735Z,66.73
2023-02-25T23:46:06.699Z,66.71
2023-02-25T23:48:58.480Z,66.54
2023-02-25T23:51:47.688Z,66.74
2023-02-25T23:54:34.687Z,66.56
2023-02-25T23:57:21.724Z,66.65
